createdAt,value
2017-06-21T00:00:57.192Z,0
2017-06-21T00:02:07.107Z,0
2017-06-21T00:03:17.194Z,0
2017-06-21T00:04:27.126Z,0
2017-06-21T00:05:37.054Z,0
2017-06-21T00:06:46.661Z,0
2017-06-21T00:07:56.583Z,0
2017-06-21T00:09:06.360Z,0
2017-06-21T00:10:16.288Z,0
2017-06-21T00:11:26.528Z,0
2017-06-21T00:12:36.129Z,0
2017-06-21T00:13:46.042Z,0
2017-06-21T00:14:56.369Z,0
2017-06-21T00:16:05.966Z,0
2017-06-21T00:17:15.578Z,0
2017-06-21T00:18:25.189Z,0
2017-06-21T00:19:35.101Z,0
2017-06-21T00:20:44.410Z,0
2017-06-21T00:21:54.649Z,0
2017-06-21T00:23:04.571Z,0
2017-06-21T00:24:14.811Z,0
2017-06-21T00:25:24.733Z,0
2017-06-21T00:26:35.115Z,0
2017-06-21T00:27:45.368Z,0
2017-06-21T00:28:54.964Z,0
2017-06-21T00:30:04.576Z,0
2017-06-21T00:31:14.795Z,0
2017-06-21T00:32:24.856Z,0
2017-06-21T00:33:34.767Z,0
2017-06-21T00:34:44.375Z,0
2017-06-21T00:35:53.666Z,0
2017-06-21T00:37:03.886Z,0
2017-06-21T00:38:14.099Z,0
2017-06-21T00:39:23.701Z,0
2017-06-21T00:40:33.622Z,0
2017-06-21T00:41:43.541Z,0
2017-06-21T00:42:52.842Z,0
2017-06-21T00:44:02.590Z,0
2017-06-21T00:45:12.518Z,0
2017-06-21T00:46:22.440Z,0
2017-06-21T00:47:32.694Z,0
2017-06-21T00:48:42.925Z,0
2017-06-21T00:49:52.932Z,0
2017-06-21T00:51:02.585Z,0
2017-06-21T00:52:12.518Z,0
2017-06-21T00:53:22.750Z,0
2017-06-21T00:54:32.962Z,0
2017-06-21T00:55:42.428Z,0
2017-06-21T00:56:52.641Z,0
2017-06-21T00:58:02.571Z,0
2017-06-21T00:59:12.822Z,0
2017-06-21T01:00:22.741Z,0
2017-06-21T01:01:33.138Z,0
2017-06-21T01:02:42.744Z,0
2017-06-21T01:03:52.966Z,0
2017-06-21T01:05:02.582Z,0
2017-06-21T01:06:12.804Z,0
2017-06-21T01:07:22.574Z,0
2017-06-21T01:08:32.479Z,0
2017-06-21T01:09:42.392Z,0
2017-06-21T01:10:52.630Z,0
2017-06-21T01:12:02.542Z,0
2017-06-21T01:13:12.595Z,0
2017-06-21T01:14:23.189Z,0
2017-06-21T01:15:33.099Z,0
2017-06-21T01:16:43.021Z,0
2017-06-21T01:17:52.949Z,0
2017-06-21T01:19:02.567Z,0
2017-06-21T01:20:12.486Z,0
2017-06-21T01:21:23.083Z,0
2017-06-21T01:22:33.309Z,0
2017-06-21T01:23:43.543Z,0
2017-06-21T01:24:53.511Z,0
2017-06-21T01:26:03.418Z,0
2017-06-21T01:27:13.333Z,0
2017-06-21T01:28:23.274Z,0
2017-06-21T01:29:33.198Z,0
2017-06-21T01:30:43.034Z,0
2017-06-21T01:31:53.286Z,0
2017-06-21T01:33:03.189Z,0
2017-06-21T01:34:13.102Z,0
2017-06-21T01:35:22.733Z,0
2017-06-21T01:36:33.113Z,0
2017-06-21T01:37:43.017Z,0
2017-06-21T01:38:52.026Z,0
2017-06-21T01:40:01.971Z,0
2017-06-21T01:41:11.569Z,0
2017-06-21T01:42:21.526Z,0
2017-06-21T01:43:31.749Z,0
2017-06-21T01:44:41.646Z,0
2017-06-21T01:45:51.860Z,0
2017-06-21T01:47:01.793Z,0
2017-06-21T01:48:11.452Z,0
2017-06-21T01:49:21.067Z,0
2017-06-21T01:50:30.989Z,0
2017-06-21T01:51:40.651Z,0
2017-06-21T01:52:49.958Z,0
2017-06-21T01:54:00.031Z,0
2017-06-21T01:55:09.646Z,0
2017-06-21T01:56:19.549Z,0
2017-06-21T01:57:29.161Z,0
2017-06-21T01:58:38.772Z,0
2017-06-21T01:59:48.537Z,0
2017-06-21T02:00:58.763Z,0
2017-06-21T02:02:08.692Z,0
2017-06-21T02:03:18.608Z,0
2017-06-21T02:04:28.209Z,0
2017-06-21T02:05:37.815Z,0
2017-06-21T02:06:47.412Z,0
2017-06-21T02:07:57.023Z,0
2017-06-21T02:09:06.634Z,0
2017-06-21T02:10:16.558Z,0
2017-06-21T02:11:26.470Z,0
2017-06-21T02:12:36.689Z,0
2017-06-21T02:13:46.304Z,0
2017-06-21T02:14:56.214Z,0
2017-06-21T02:16:05.830Z,0
2017-06-21T02:17:15.578Z,0
2017-06-21T02:18:25.207Z,0
2017-06-21T02:19:35.433Z,0
2017-06-21T02:20:45.046Z,0
2017-06-21T02:21:55.271Z,0
2017-06-21T02:23:05.539Z,0
2017-06-21T02:24:15.492Z,0
2017-06-21T02:25:24.791Z,0
2017-06-21T02:26:35.011Z,0
2017-06-21T02:27:44.929Z,0
2017-06-21T02:28:54.233Z,0
2017-06-21T02:30:04.467Z,0
2017-06-21T02:31:14.400Z,0
2017-06-21T02:32:24.018Z,0
2017-06-21T02:33:34.240Z,0
2017-06-21T02:34:44.160Z,0
2017-06-21T02:35:54.416Z,0
2017-06-21T02:37:04.043Z,0
2017-06-21T02:38:13.650Z,0
2017-06-21T02:39:23.568Z,0
2017-06-21T02:40:33.276Z,0
2017-06-21T02:41:42.882Z,0
2017-06-21T02:42:53.090Z,0
2017-06-21T02:44:03.000Z,0
2017-06-21T02:45:12.611Z,0
2017-06-21T02:46:22.366Z,0
2017-06-21T02:47:32.283Z,4
2017-06-21T02:48:41.884Z,4
2017-06-21T02:49:51.788Z,0
2017-06-21T02:51:02.022Z,0
2017-06-21T02:52:12.087Z,4
2017-06-21T02:53:22.309Z,4
2017-06-21T02:54:31.911Z,0
2017-06-21T02:55:41.821Z,4
2017-06-21T02:56:51.728Z,4
2017-06-21T02:58:01.329Z,4
2017-06-21T02:59:11.538Z,4
2017-06-21T03:00:21.155Z,4
2017-06-21T03:01:31.057Z,4
2017-06-21T03:02:40.989Z,8
2017-06-21T03:03:50.641Z,8
2017-06-21T03:05:00.561Z,8
2017-06-21T03:06:10.485Z,8
2017-06-21T03:07:20.714Z,12
2017-06-21T03:08:30.934Z,12
2017-06-21T03:09:40.956Z,12
2017-06-21T03:10:49.941Z,16
2017-06-21T03:12:00.166Z,16
2017-06-21T03:13:10.076Z,20
2017-06-21T03:14:19.989Z,20
2017-06-21T03:15:30.041Z,24
2017-06-21T03:16:40.306Z,24
2017-06-21T03:17:50.525Z,24
2017-06-21T03:19:00.736Z,28
2017-06-21T03:20:10.972Z,28
2017-06-21T03:21:20.637Z,32
2017-06-21T03:22:30.857Z,32
2017-06-21T03:23:40.770Z,36
2017-06-21T03:24:50.998Z,40
2017-06-21T03:26:01.233Z,40
2017-06-21T03:27:11.213Z,44
2017-06-21T03:28:21.127Z,52
2017-06-21T03:29:31.045Z,52
2017-06-21T03:30:41.290Z,60
2017-06-21T03:31:51.508Z,64
2017-06-21T03:33:01.423Z,72
2017-06-21T03:34:11.027Z,76
2017-06-21T03:35:20.931Z,84
2017-06-21T03:36:30.842Z,92
2017-06-21T03:37:40.462Z,100
2017-06-21T03:38:50.372Z,104
2017-06-21T03:40:00.284Z,112
2017-06-21T03:41:09.889Z,120
2017-06-21T03:42:19.800Z,128
2017-06-21T03:43:29.716Z,136
2017-06-21T03:44:40.085Z,148
2017-06-21T03:45:49.689Z,152
2017-06-21T03:46:59.916Z,160
2017-06-21T03:48:09.872Z,168
2017-06-21T03:49:19.774Z,172
2017-06-21T03:50:30.133Z,176
2017-06-21T03:51:40.058Z,184
2017-06-21T03:52:49.968Z,192
2017-06-21T03:53:59.887Z,200
2017-06-21T03:55:09.497Z,204
2017-06-21T03:56:19.410Z,208
2017-06-21T03:57:29.321Z,212
2017-06-21T03:58:39.241Z,220
2017-06-21T03:59:48.537Z,224
2017-06-21T04:00:58.180Z,236
2017-06-21T04:02:08.585Z,240
2017-06-21T04:03:18.518Z,252
2017-06-21T04:04:28.736Z,260
2017-06-21T04:05:38.665Z,272
2017-06-21T04:06:48.282Z,284
2017-06-21T04:07:58.044Z,300
2017-06-21T04:09:08.258Z,312
2017-06-21T04:10:18.167Z,324
2017-06-21T04:11:28.757Z,340
2017-06-21T04:12:38.971Z,356
2017-06-21T04:13:48.985Z,372
2017-06-21T04:14:59.234Z,388
2017-06-21T04:16:09.150Z,400
2017-06-21T04:17:18.778Z,424
2017-06-21T04:18:28.995Z,440
2017-06-21T04:19:38.616Z,460
2017-06-21T04:20:48.536Z,476
2017-06-21T04:21:58.440Z,492
2017-06-21T04:23:08.054Z,504
2017-06-21T04:24:18.028Z,512
2017-06-21T04:25:28.401Z,524
2017-06-21T04:26:38.310Z,536
2017-06-21T04:27:48.231Z,552
2017-06-21T04:28:57.838Z,560
2017-06-21T04:30:07.439Z,572
2017-06-21T04:31:17.499Z,588
2017-06-21T04:32:27.422Z,592
2017-06-21T04:33:37.043Z,600
2017-06-21T04:34:47.256Z,608
2017-06-21T04:35:57.479Z,612
2017-06-21T04:37:07.738Z,616
2017-06-21T04:38:17.044Z,616
2017-06-21T04:39:26.339Z,624
2017-06-21T04:40:35.955Z,632
2017-06-21T04:41:45.877Z,640
2017-06-21T04:42:55.809Z,636
2017-06-21T04:44:05.114Z,636
2017-06-21T04:45:15.024Z,636
2017-06-21T04:46:25.004Z,632
2017-06-21T04:47:34.926Z,616
2017-06-21T04:48:45.024Z,608
2017-06-21T04:49:55.268Z,624
2017-06-21T04:51:05.184Z,640
2017-06-21T04:52:15.102Z,672
2017-06-21T04:53:25.009Z,712
2017-06-21T04:54:35.069Z,736
2017-06-21T04:55:45.291Z,772
2017-06-21T04:56:55.512Z,748
2017-06-21T04:58:05.445Z,760
2017-06-21T04:59:14.739Z,756
2017-06-21T05:00:24.519Z,748
2017-06-21T05:01:34.436Z,772
2017-06-21T05:02:44.338Z,768
2017-06-21T05:03:54.258Z,764
2017-06-21T05:05:04.175Z,756
2017-06-21T05:06:14.403Z,756
2017-06-21T05:07:24.009Z,748
2017-06-21T05:08:34.238Z,776
2017-06-21T05:09:43.887Z,804
2017-06-21T05:10:53.801Z,812
2017-06-21T05:12:03.860Z,844
2017-06-21T05:13:13.459Z,860
2017-06-21T05:14:23.383Z,888
2017-06-21T05:15:33.304Z,948
2017-06-21T05:16:42.911Z,976
2017-06-21T05:17:52.979Z,1036
2017-06-21T05:19:02.886Z,1072
2017-06-21T05:20:13.104Z,1200
2017-06-21T05:21:23.328Z,1292
2017-06-21T05:22:32.954Z,1392
2017-06-21T05:23:43.277Z,1608
2017-06-21T05:24:52.902Z,1820
2017-06-21T05:26:02.861Z,1820
2017-06-21T05:27:12.801Z,1804
2017-06-21T05:28:22.729Z,1852
2017-06-21T05:29:32.352Z,1848
2017-06-21T05:30:42.304Z,1836
2017-06-21T05:31:52.249Z,1976
2017-06-21T05:33:02.168Z,1864
2017-06-21T05:34:11.812Z,1912
2017-06-21T05:35:21.844Z,2180
2017-06-21T05:36:32.073Z,2244
2017-06-21T05:37:42.032Z,2296
2017-06-21T05:38:51.350Z,2320
2017-06-21T05:40:00.650Z,2348
2017-06-21T05:41:10.415Z,2284
2017-06-21T05:42:20.332Z,2280
2017-06-21T05:43:30.253Z,2328
2017-06-21T05:44:40.491Z,2348
2017-06-21T05:45:50.759Z,2352
2017-06-21T05:47:00.535Z,2292
2017-06-21T05:48:10.134Z,2140
2017-06-21T05:49:20.088Z,2160
2017-06-21T05:50:30.011Z,2208
2017-06-21T05:51:40.253Z,2208
2017-06-21T05:52:50.194Z,2052
2017-06-21T05:54:00.452Z,2368
2017-06-21T05:55:10.374Z,2100
2017-06-21T05:56:20.010Z,2468
2017-06-21T05:57:30.245Z,2476
2017-06-21T05:58:40.163Z,2520
2017-06-21T05:59:49.770Z,2320
2017-06-21T06:00:59.993Z,2408
2017-06-21T06:02:10.240Z,2368
2017-06-21T06:03:20.153Z,2440
2017-06-21T06:04:30.440Z,2456
2017-06-21T06:05:40.068Z,2052
2017-06-21T06:06:49.982Z,1996
2017-06-21T06:07:59.889Z,2140
2017-06-21T06:09:09.806Z,2288
2017-06-21T06:10:19.428Z,2488
2017-06-21T06:11:29.050Z,2472
2017-06-21T06:12:39.269Z,2560
2017-06-21T06:13:49.193Z,2632
2017-06-21T06:14:59.432Z,2660
2017-06-21T06:16:09.714Z,2696
2017-06-21T06:17:19.631Z,2412
2017-06-21T06:18:29.577Z,2768
2017-06-21T06:19:39.513Z,2712
2017-06-21T06:20:49.754Z,2724
2017-06-21T06:21:59.127Z,2796
2017-06-21T06:23:09.348Z,2808
2017-06-21T06:24:19.265Z,2844
2017-06-21T06:25:29.194Z,2864
2017-06-21T06:26:38.499Z,2896
2017-06-21T06:27:48.511Z,2940
2017-06-21T06:28:58.739Z,2952
2017-06-21T06:30:08.666Z,2924
2017-06-21T06:31:18.886Z,2956
2017-06-21T06:32:28.806Z,2972
2017-06-21T06:33:38.724Z,3012
2017-06-21T06:34:48.969Z,3028
2017-06-21T06:35:58.587Z,3104
2017-06-21T06:37:08.814Z,3108
2017-06-21T06:38:18.745Z,3108
2017-06-21T06:39:29.128Z,3092
2017-06-21T06:40:39.053Z,3108
2017-06-21T06:41:48.973Z,3136
2017-06-21T06:42:58.286Z,3168
2017-06-21T06:44:08.227Z,3192
2017-06-21T06:45:17.897Z,3212
2017-06-21T06:46:27.814Z,3252
2017-06-21T06:47:37.423Z,3324
2017-06-21T06:48:47.039Z,3388
2017-06-21T06:49:57.261Z,3428
2017-06-21T06:51:07.633Z,3460
2017-06-21T06:52:17.880Z,3496
2017-06-21T06:53:27.813Z,3528
2017-06-21T06:54:37.739Z,3500
2017-06-21T06:55:47.725Z,3332
2017-06-21T06:56:58.050Z,3020
2017-06-21T06:58:08.272Z,2916
2017-06-21T06:59:18.188Z,2592
2017-06-21T07:00:28.127Z,3588
2017-06-21T07:01:38.053Z,3864
2017-06-21T07:02:47.460Z,3944
2017-06-21T07:03:57.399Z,4040
2017-06-21T07:05:07.071Z,4064
2017-06-21T07:06:17.256Z,4056
2017-06-21T07:07:27.181Z,4152
2017-06-21T07:08:36.934Z,4400
2017-06-21T07:09:46.870Z,4444
2017-06-21T07:10:56.487Z,4416
2017-06-21T07:12:06.727Z,4564
2017-06-21T07:13:16.407Z,4680
2017-06-21T07:14:26.176Z,4732
2017-06-21T07:15:35.795Z,4804
2017-06-21T07:16:45.480Z,4864
2017-06-21T07:17:55.096Z,4932
2017-06-21T07:19:05.319Z,5024
2017-06-21T07:20:15.399Z,5160
2017-06-21T07:21:25.340Z,5148
2017-06-21T07:22:35.274Z,5388
2017-06-21T07:23:45.201Z,5284
2017-06-21T07:24:55.116Z,5356
2017-06-21T07:26:04.881Z,5400
2017-06-21T07:27:14.828Z,5708
2017-06-21T07:28:24.777Z,5808
2017-06-21T07:29:34.717Z,5776
2017-06-21T07:30:44.662Z,5980
2017-06-21T07:31:55.005Z,6204
2017-06-21T07:33:05.239Z,6288
2017-06-21T07:34:14.881Z,6308
2017-06-21T07:35:24.517Z,6692
2017-06-21T07:36:34.743Z,6892
2017-06-21T07:37:45.033Z,7400
2017-06-21T07:38:55.258Z,7860
2017-06-21T07:40:05.176Z,8404
2017-06-21T07:41:14.792Z,7308
2017-06-21T07:42:25.027Z,7204
2017-06-21T07:43:35.560Z,7288
2017-06-21T07:44:45.186Z,7468
2017-06-21T07:45:54.794Z,7584
2017-06-21T07:47:04.110Z,7928
2017-06-21T07:48:13.425Z,8360
2017-06-21T07:49:24.095Z,8852
2017-06-21T07:50:34.328Z,9956
2017-06-21T07:51:44.252Z,16092
2017-06-21T07:52:54.183Z,33152
2017-06-21T07:54:04.411Z,42656
2017-06-21T07:55:14.447Z,43648
2017-06-21T07:56:24.682Z,45664
2017-06-21T07:57:34.909Z,44160
2017-06-21T07:58:44.531Z,44864
2017-06-21T07:59:54.151Z,47936
2017-06-21T08:01:03.904Z,47264
2017-06-21T08:02:14.135Z,47840
2017-06-21T08:03:24.070Z,47264
2017-06-21T08:04:33.981Z,49184
2017-06-21T08:05:44.216Z,48480
2017-06-21T08:06:53.838Z,49088
2017-06-21T08:08:04.056Z,51872
2017-06-21T08:09:13.976Z,55040
2017-06-21T08:10:23.906Z,55264
2017-06-21T08:11:33.519Z,53504
2017-06-21T08:12:43.277Z,50240
2017-06-21T08:13:53.211Z,52352
2017-06-21T08:15:02.524Z,54848
2017-06-21T08:16:12.752Z,53792
2017-06-21T08:17:23.029Z,48832
2017-06-21T08:18:33.098Z,52320
2017-06-21T08:19:43.349Z,51328
2017-06-21T08:20:53.264Z,58272
2017-06-21T08:22:02.877Z,58880
2017-06-21T08:23:12.798Z,47872
2017-06-21T08:24:23.083Z,47776
2017-06-21T08:25:32.388Z,45504
2017-06-21T08:26:41.985Z,45952
2017-06-21T08:27:51.599Z,49824
2017-06-21T08:29:01.532Z,51232
2017-06-21T08:30:11.503Z,46784
2017-06-21T08:31:21.419Z,47040
2017-06-21T08:32:31.341Z,46432
2017-06-21T08:33:41.271Z,45536
2017-06-21T08:34:50.569Z,41440
2017-06-21T08:36:00.506Z,42240
2017-06-21T08:37:10.729Z,44896
2017-06-21T08:38:20.337Z,46368
2017-06-21T08:39:29.943Z,48096
2017-06-21T08:40:39.866Z,49056
2017-06-21T08:41:49.950Z,47520
2017-06-21T08:42:59.271Z,43776
2017-06-21T08:44:09.531Z,26592
2017-06-21T08:45:19.450Z,10140
2017-06-21T08:46:29.707Z,6984
2017-06-21T08:47:39.734Z,5904
2017-06-21T08:48:49.993Z,5052
2017-06-21T08:49:59.933Z,4660
2017-06-21T08:51:09.852Z,4392
2017-06-21T08:52:19.776Z,3992
2017-06-21T08:53:29.489Z,3780
2017-06-21T08:54:39.714Z,3348
2017-06-21T08:55:49.643Z,3032
2017-06-21T08:56:59.267Z,2864
2017-06-21T08:58:09.199Z,2756
2017-06-21T08:59:19.120Z,2728
2017-06-21T09:00:29.082Z,2656
2017-06-21T09:01:39.319Z,2520
2017-06-21T09:02:48.942Z,2436
2017-06-21T09:03:58.554Z,2376
2017-06-21T09:05:08.328Z,2360
2017-06-21T09:06:17.945Z,2212
2017-06-21T09:07:28.188Z,2200
2017-06-21T09:08:38.158Z,2292
2017-06-21T09:09:48.460Z,2272
2017-06-21T09:10:58.477Z,2156
2017-06-21T09:12:08.093Z,2116
2017-06-21T09:13:18.325Z,2140
2017-06-21T09:14:28.251Z,2140
2017-06-21T09:15:37.873Z,2160
2017-06-21T09:16:48.273Z,2236
2017-06-21T09:17:57.574Z,2248
2017-06-21T09:19:07.808Z,2328
2017-06-21T09:20:17.436Z,2364
2017-06-21T09:21:27.363Z,2372
2017-06-21T09:22:37.600Z,2332
2017-06-21T09:23:46.918Z,2308
2017-06-21T09:24:56.562Z,2332
2017-06-21T09:26:06.496Z,2324
2017-06-21T09:27:16.726Z,2256
2017-06-21T09:28:26.405Z,2248
2017-06-21T09:29:36.632Z,2252
2017-06-21T09:30:46.249Z,2180
2017-06-21T09:31:56.481Z,2092
2017-06-21T09:33:06.414Z,2060
2017-06-21T09:34:16.742Z,1960
2017-06-21T09:35:26.050Z,1972
2017-06-21T09:36:36.265Z,1916
2017-06-21T09:37:45.868Z,1856
2017-06-21T09:38:55.489Z,1812
2017-06-21T09:40:05.726Z,1752
2017-06-21T09:41:15.645Z,1820
2017-06-21T09:42:25.564Z,1840
2017-06-21T09:43:35.800Z,1832
2017-06-21T09:44:45.720Z,1876
2017-06-21T09:45:56.065Z,1856
2017-06-21T09:47:05.685Z,1804
2017-06-21T09:48:15.613Z,1764
2017-06-21T09:49:25.842Z,1712
2017-06-21T09:50:36.070Z,1668
2017-06-21T09:51:46.448Z,1608
2017-06-21T09:52:56.371Z,1548
2017-06-21T09:54:05.689Z,1496
2017-06-21T09:55:15.934Z,1444
2017-06-21T09:56:26.161Z,1412
2017-06-21T09:57:36.229Z,1408
2017-06-21T09:58:45.848Z,1408
2017-06-21T09:59:55.803Z,1420
2017-06-21T10:01:06.027Z,1448
2017-06-21T10:02:15.634Z,1452
2017-06-21T10:03:25.699Z,1484
2017-06-21T10:04:35.930Z,1472
2017-06-21T10:05:45.855Z,1484
2017-06-21T10:06:56.187Z,1472
2017-06-21T10:08:05.819Z,1452
2017-06-21T10:09:15.854Z,1432
2017-06-21T10:10:26.086Z,1392
2017-06-21T10:11:35.700Z,1364
2017-06-21T10:12:45.623Z,1340
2017-06-21T10:13:55.563Z,1308
2017-06-21T10:15:04.931Z,1288
2017-06-21T10:16:14.555Z,1252
2017-06-21T10:17:24.173Z,1228
2017-06-21T10:18:33.479Z,1212
2017-06-21T10:19:43.109Z,1188
2017-06-21T10:20:53.284Z,1164
2017-06-21T10:22:03.534Z,1156
2017-06-21T10:23:13.462Z,1140
2017-06-21T10:24:23.695Z,1116
2017-06-21T10:25:33.940Z,1100
2017-06-21T10:26:44.239Z,1068
2017-06-21T10:27:54.166Z,1068
2017-06-21T10:29:04.403Z,1076
2017-06-21T10:30:14.018Z,1060
2017-06-21T10:31:23.938Z,1092
2017-06-21T10:32:33.707Z,1076
2017-06-21T10:33:43.330Z,1040
2017-06-21T10:34:53.574Z,1052
2017-06-21T10:36:03.821Z,1044
2017-06-21T10:37:13.437Z,1052
2017-06-21T10:38:23.519Z,1072
2017-06-21T10:39:33.753Z,1072
2017-06-21T10:40:44.047Z,1060
2017-06-21T10:41:53.353Z,1040
2017-06-21T10:43:03.284Z,1040
2017-06-21T10:44:13.063Z,1032
2017-06-21T10:45:22.982Z,1008
2017-06-21T10:46:32.921Z,984
2017-06-21T10:47:42.850Z,972
2017-06-21T10:48:52.772Z,956
2017-06-21T10:50:03.150Z,956
2017-06-21T10:51:12.794Z,944
2017-06-21T10:52:21.807Z,936
2017-06-21T10:53:31.436Z,940
2017-06-21T10:54:41.356Z,920
2017-06-21T10:55:51.621Z,920
2017-06-21T10:57:01.237Z,908
2017-06-21T10:58:10.240Z,904
2017-06-21T10:59:19.883Z,892
2017-06-21T11:00:29.828Z,884
2017-06-21T11:01:39.603Z,884
2017-06-21T11:02:49.216Z,888
2017-06-21T11:03:59.152Z,876
2017-06-21T11:05:08.462Z,868
2017-06-21T11:06:18.380Z,860
2017-06-21T11:07:28.392Z,848
2017-06-21T11:08:37.991Z,848
2017-06-21T11:09:47.604Z,836
2017-06-21T11:10:57.221Z,824
2017-06-21T11:12:07.159Z,840
2017-06-21T11:13:17.408Z,844
2017-06-21T11:14:27.633Z,840
2017-06-21T11:15:37.550Z,840
2017-06-21T11:16:47.164Z,836
2017-06-21T11:17:57.389Z,844
2017-06-21T11:19:07.620Z,852
2017-06-21T11:20:17.575Z,856
2017-06-21T11:21:27.196Z,852
2017-06-21T11:22:37.113Z,844
2017-06-21T11:23:47.344Z,840
2017-06-21T11:24:56.346Z,848
2017-06-21T11:26:05.956Z,852
2017-06-21T11:27:15.882Z,844
2017-06-21T11:28:25.816Z,828
2017-06-21T11:29:35.115Z,792
2017-06-21T11:30:44.529Z,788
2017-06-21T11:31:54.135Z,788
2017-06-21T11:33:03.748Z,784
2017-06-21T11:34:13.059Z,772
2017-06-21T11:35:23.296Z,736
2017-06-21T11:36:33.580Z,728
2017-06-21T11:37:42.880Z,704
2017-06-21T11:38:52.190Z,716
2017-06-21T11:40:01.496Z,704
2017-06-21T11:41:11.713Z,692
2017-06-21T11:42:22.791Z,692
2017-06-21T11:43:32.733Z,688
2017-06-21T11:44:42.701Z,696
2017-06-21T11:45:52.336Z,696
2017-06-21T11:47:01.668Z,696
2017-06-21T11:48:11.965Z,704
2017-06-21T11:49:21.901Z,708
2017-06-21T11:50:32.155Z,716
2017-06-21T11:51:42.098Z,728
2017-06-21T11:52:52.032Z,660
2017-06-21T11:54:01.458Z,732
2017-06-21T11:55:11.386Z,736
2017-06-21T11:56:21.011Z,744
2017-06-21T11:57:30.639Z,748
2017-06-21T11:58:39.952Z,744
2017-06-21T11:59:49.425Z,748
2017-06-21T12:00:59.047Z,760
2017-06-21T12:02:08.658Z,772
2017-06-21T12:03:18.607Z,756
2017-06-21T12:04:28.250Z,740
2017-06-21T12:05:38.027Z,736
2017-06-21T12:06:47.666Z,724
2017-06-21T12:07:56.993Z,716
2017-06-21T12:09:06.290Z,708
2017-06-21T12:10:15.894Z,696
2017-06-21T12:11:25.656Z,688
2017-06-21T12:12:34.986Z,688
2017-06-21T12:13:44.899Z,692
2017-06-21T12:14:54.527Z,692
2017-06-21T12:16:03.840Z,696
2017-06-21T12:17:13.519Z,704
2017-06-21T12:18:22.839Z,708
2017-06-21T12:19:32.472Z,692
2017-06-21T12:20:41.482Z,700
2017-06-21T12:21:51.428Z,696
2017-06-21T12:23:00.820Z,696
2017-06-21T12:24:10.457Z,696
2017-06-21T12:25:20.086Z,688
2017-06-21T12:26:29.417Z,668
2017-06-21T12:27:39.043Z,664
2017-06-21T12:28:48.690Z,652
2017-06-21T12:29:58.008Z,644
2017-06-21T12:31:07.348Z,652
2017-06-21T12:32:16.993Z,656
2017-06-21T12:33:26.636Z,664
2017-06-21T12:34:36.406Z,672
2017-06-21T12:35:45.708Z,684
2017-06-21T12:36:55.633Z,688
2017-06-21T12:38:05.550Z,704
2017-06-21T12:39:15.464Z,708
2017-06-21T12:40:25.094Z,696
2017-06-21T12:41:35.348Z,640
2017-06-21T12:42:44.973Z,672
2017-06-21T12:43:54.906Z,672
2017-06-21T12:45:04.845Z,680
2017-06-21T12:46:15.162Z,656
2017-06-21T12:47:24.768Z,648
2017-06-21T12:48:34.691Z,636
2017-06-21T12:49:44.919Z,628
2017-06-21T12:50:54.836Z,624
2017-06-21T12:52:04.614Z,616
2017-06-21T12:53:14.234Z,616
2017-06-21T12:54:23.922Z,620
2017-06-21T12:55:33.856Z,616
2017-06-21T12:56:43.473Z,632
2017-06-21T12:57:52.830Z,608
2017-06-21T12:59:02.452Z,612
2017-06-21T13:00:11.783Z,616
2017-06-21T13:01:21.407Z,612
2017-06-21T13:02:31.021Z,620
2017-06-21T13:03:41.002Z,612
2017-06-21T13:04:50.624Z,616
2017-06-21T13:06:00.237Z,528
2017-06-21T13:07:10.473Z,596
2017-06-21T13:08:20.406Z,552
2017-06-21T13:09:30.175Z,624
2017-06-21T13:10:39.802Z,628
2017-06-21T13:11:49.719Z,640
2017-06-21T13:12:59.945Z,632
2017-06-21T13:14:09.886Z,552
2017-06-21T13:15:19.965Z,500
2017-06-21T13:16:29.586Z,500
2017-06-21T13:17:39.200Z,504
2017-06-21T13:18:49.117Z,512
2017-06-21T13:19:58.737Z,508
2017-06-21T13:21:08.823Z,512
2017-06-21T13:22:18.746Z,536
2017-06-21T13:23:28.966Z,628
2017-06-21T13:24:38.886Z,640
2017-06-21T13:25:48.830Z,640
2017-06-21T13:26:58.453Z,640
2017-06-21T13:28:08.670Z,648
2017-06-21T13:29:18.912Z,640
2017-06-21T13:30:29.162Z,616
2017-06-21T13:31:39.078Z,632
2017-06-21T13:32:49.313Z,664
2017-06-21T13:33:58.931Z,672
2017-06-21T13:35:08.247Z,680
2017-06-21T13:36:18.192Z,688
2017-06-21T13:37:28.108Z,668
2017-06-21T13:38:37.779Z,564
2017-06-21T13:39:47.903Z,564
2017-06-21T13:40:57.233Z,568
2017-06-21T13:42:06.844Z,576
2017-06-21T13:43:17.072Z,584
2017-06-21T13:44:27.090Z,584
2017-06-21T13:45:37.351Z,596
2017-06-21T13:46:46.964Z,604
2017-06-21T13:47:57.191Z,608
2017-06-21T13:49:07.114Z,612
2017-06-21T13:50:17.193Z,612
2017-06-21T13:51:26.810Z,612
2017-06-21T13:52:37.048Z,632
2017-06-21T13:53:46.973Z,640
2017-06-21T13:54:57.211Z,632
2017-06-21T13:56:07.254Z,644
2017-06-21T13:57:17.491Z,644
2017-06-21T13:58:26.816Z,620
2017-06-21T13:59:37.058Z,616
2017-06-21T14:00:46.986Z,628
2017-06-21T14:01:56.750Z,652
2017-06-21T14:03:07.015Z,688
2017-06-21T14:04:16.640Z,680
2017-06-21T14:05:26.261Z,672
2017-06-21T14:06:35.572Z,696
2017-06-21T14:07:45.649Z,720
2017-06-21T14:08:55.283Z,744
2017-06-21T14:10:05.522Z,756
2017-06-21T14:11:15.464Z,748
2017-06-21T14:12:25.088Z,748
2017-06-21T14:13:35.458Z,744
2017-06-21T14:14:45.691Z,752
2017-06-21T14:15:55.927Z,756
2017-06-21T14:17:06.162Z,788
2017-06-21T14:18:15.793Z,796
2017-06-21T14:19:25.860Z,816
2017-06-21T14:20:35.791Z,824
2017-06-21T14:21:45.702Z,828
2017-06-21T14:22:55.947Z,816
2017-06-21T14:24:05.878Z,792
2017-06-21T14:25:15.189Z,776
2017-06-21T14:26:25.112Z,756
2017-06-21T14:27:34.755Z,740
2017-06-21T14:28:44.704Z,748
2017-06-21T14:29:54.662Z,740
2017-06-21T14:31:05.062Z,732
2017-06-21T14:32:14.990Z,740
2017-06-21T14:33:25.227Z,744
2017-06-21T14:34:35.460Z,732
2017-06-21T14:35:45.404Z,736
2017-06-21T14:36:55.512Z,744
2017-06-21T14:38:04.839Z,752
2017-06-21T14:39:14.458Z,756
2017-06-21T14:40:24.514Z,744
2017-06-21T14:41:34.435Z,772
2017-06-21T14:42:44.408Z,784
2017-06-21T14:43:54.396Z,792
2017-06-21T14:45:04.043Z,788
2017-06-21T14:46:13.976Z,772
2017-06-21T14:47:23.607Z,752
2017-06-21T14:48:33.333Z,736
2017-06-21T14:49:43.270Z,712
2017-06-21T14:50:53.190Z,704
2017-06-21T14:52:02.534Z,680
2017-06-21T14:53:12.452Z,644
2017-06-21T14:54:22.542Z,600
2017-06-21T14:55:32.468Z,564
2017-06-21T14:56:42.091Z,544
2017-06-21T14:57:52.024Z,524
2017-06-21T14:59:01.991Z,512
2017-06-21T15:00:12.040Z,492
2017-06-21T15:01:21.990Z,484
2017-06-21T15:02:31.927Z,464
2017-06-21T15:03:41.875Z,456
2017-06-21T15:04:51.808Z,456
2017-06-21T15:06:01.940Z,448
2017-06-21T15:07:11.584Z,440
2017-06-21T15:08:21.514Z,432
2017-06-21T15:09:31.784Z,424
2017-06-21T15:10:42.017Z,412
2017-06-21T15:11:51.752Z,408
2017-06-21T15:13:01.361Z,420
2017-06-21T15:14:10.688Z,416
2017-06-21T15:15:19.703Z,416
2017-06-21T15:16:29.637Z,416
2017-06-21T15:17:38.634Z,416
2017-06-21T15:18:47.940Z,424
2017-06-21T15:19:57.286Z,428
2017-06-21T15:21:06.907Z,428
2017-06-21T15:22:15.905Z,432
2017-06-21T15:23:25.210Z,436
2017-06-21T15:24:34.249Z,440
2017-06-21T15:25:43.319Z,444
2017-06-21T15:26:52.626Z,440
2017-06-21T15:28:01.633Z,440
2017-06-21T15:29:11.236Z,432
2017-06-21T15:30:20.245Z,428
2017-06-21T15:31:30.175Z,432
2017-06-21T15:32:39.484Z,436
2017-06-21T15:33:49.422Z,428
2017-06-21T15:34:59.535Z,428
2017-06-21T15:36:08.834Z,416
2017-06-21T15:37:18.452Z,420
2017-06-21T15:38:28.074Z,420
2017-06-21T15:39:37.689Z,432
2017-06-21T15:40:47.775Z,432
2017-06-21T15:41:57.691Z,436
2017-06-21T15:43:06.995Z,444
2017-06-21T15:44:16.308Z,440
2017-06-21T15:45:26.542Z,436
2017-06-21T15:46:36.195Z,436
2017-06-21T15:47:46.113Z,428
2017-06-21T15:48:55.418Z,428
2017-06-21T15:50:05.042Z,436
2017-06-21T15:51:15.205Z,424
2017-06-21T15:52:24.854Z,436
2017-06-21T15:53:34.787Z,440
2017-06-21T15:54:44.719Z,440
2017-06-21T15:55:54.650Z,440
2017-06-21T15:57:04.301Z,436
2017-06-21T15:58:14.589Z,432
2017-06-21T15:59:24.516Z,432
2017-06-21T16:00:34.446Z,420
2017-06-21T16:01:44.070Z,404
2017-06-21T16:02:54.011Z,408